Cleveland, OH (44120)

6:44 AM EST on December 07, 2016 (GMT -0500)
| | Change Station

Elev -9999 ft 0.00 °N, 0.00 °E | Updated

Cloudy
Cloudy
30 °F
Feels Like 20 °F
N
13
Wind Variable Wind from SW
Gusts 19 mph

Today
High -- | Low -- °F
--% Chance of Precip.
Yesterday
High -- | Low -- °F
Precip. -- in
Pressure 30.03 in
Visibility 10.0 miles
Clouds Overcast 2500 ft
Windchill 20 °F
Dew Point 23 °F
Humidity 75%
Rainfall --
Snow Depth Not available.
7:39 AM 4:56 PM
First Quarter, 51% visible
METAR KBKL 071053Z 23014KT 10SM OVC025 01/M03 A3001 RMK AO2 SLP167 T00111028
Pressure 30.03 in
Visibility 10.0 miles
Clouds Overcast 2500 ft
Windchill 20 °F
Dew Point 23 °F
Humidity 75%
Rainfall --
Snow Depth Not available.
7:39 AM 4:56 PM
First Quarter, 51% visible
METAR KBKL 071053Z 23014KT 10SM OVC025 01/M03 A3001 RMK AO2 SLP167 T00111028

10-Day Weather Forecast

Almanac

Astronomy

Dec. 07, 2016 Rise Set
Actual Time
Civil Twilight
Nautical Twilight
Astronomical Twilight
Moon
Length of Visible Light
Length of Day
Tomorrow will be .
, % of the Moon is Illuminated

Today's Extremes

State Highs State Lows

Community

WunderPhotos

Upload Photos

1,956,111 photos uploaded!

WunderBlog® & News

Nearby

Air Quality

  Air Quality AQ Index Pollutant
Not available.

Snow Depth

Station Depth Elevation

Earthquake Activity

City Distance Mag. Time & Date
Minimum magnitude displayed is 2.5.

Coastal Water Temperatures

Place Temperature

Stations

Nearby Weather Stations

Station Location Temp. Windchill Dew Point Humidity Wind Precip. Elev Updated Type
                   

Watches & Warnings

There are currently no watches in effect.